createdAt,value
2018-04-05T00:00:13.642Z,0.00
2018-04-05T00:01:13.649Z,0.00
2018-04-05T00:02:13.652Z,0.00
2018-04-05T00:03:13.662Z,0.00
2018-04-05T00:04:13.677Z,0.00
2018-04-05T00:05:13.677Z,0.00
2018-04-05T00:06:13.686Z,0.00
2018-04-05T00:07:13.697Z,0.00
2018-04-05T00:08:13.702Z,0.00
2018-04-05T00:09:13.716Z,0.00
2018-04-05T00:10:13.722Z,0.00
2018-04-05T00:11:13.727Z,0.00
2018-04-05T00:12:13.734Z,0.00
2018-04-05T00:13:13.755Z,0.00
2018-04-05T00:14:13.753Z,0.00
2018-04-05T00:15:13.760Z,0.00
2018-04-05T00:16:13.769Z,0.00
2018-04-05T00:17:13.777Z,0.00
2018-04-05T00:18:13.789Z,0.00
2018-04-05T00:19:13.794Z,0.00
2018-04-05T00:20:13.802Z,0.00
2018-04-05T00:21:13.812Z,0.00
2018-04-05T00:22:13.832Z,0.00
2018-04-05T00:23:13.825Z,0.00
2018-04-05T00:24:13.853Z,0.00
2018-04-05T00:25:13.844Z,0.00
2018-04-05T00:26:13.854Z,0.00
2018-04-05T00:27:13.859Z,0.00
2018-04-05T00:28:13.865Z,0.00
2018-04-05T00:29:13.876Z,0.00
2018-04-05T00:30:13.890Z,0.00
2018-04-05T00:31:13.892Z,0.00
2018-04-05T00:32:13.902Z,0.00
2018-04-05T00:33:13.908Z,0.00
2018-04-05T00:34:13.918Z,0.00
2018-04-05T00:35:13.928Z,0.00
2018-04-05T00:36:13.931Z,0.00
2018-04-05T00:37:13.942Z,0.00
2018-04-05T00:38:13.952Z,0.00
2018-04-05T00:39:13.959Z,0.00
2018-04-05T00:40:13.966Z,0.00
2018-04-05T00:41:13.975Z,0.00
2018-04-05T00:42:13.986Z,0.00
2018-04-05T00:43:14.008Z,0.00
2018-04-05T00:44:14.000Z,0.00
2018-04-05T00:45:14.006Z,0.00
2018-04-05T00:46:14.015Z,0.00
2018-04-05T00:47:14.026Z,0.00
2018-04-05T00:48:14.034Z,0.00
2018-04-05T00:49:14.042Z,0.00
2018-04-05T00:50:14.049Z,0.00
2018-04-05T00:51:14.056Z,0.00
2018-04-05T00:52:14.070Z,0.00
2018-04-05T00:53:14.072Z,0.00
2018-04-05T00:54:14.105Z,0.00
2018-04-05T00:55:14.090Z,0.00
2018-04-05T00:56:14.097Z,0.00
2018-04-05T00:57:14.107Z,0.00
2018-04-05T00:58:14.124Z,0.00
2018-04-05T00:59:14.123Z,0.00
2018-04-05T01:00:14.133Z,0.00
2018-04-05T01:01:14.137Z,0.00
2018-04-05T01:02:14.147Z,0.00
2018-04-05T01:03:14.155Z,0.00
2018-04-05T01:04:14.170Z,0.00
2018-04-05T01:05:14.172Z,0.00
2018-04-05T01:06:14.180Z,0.00
2018-04-05T01:07:14.189Z,0.00
2018-04-05T01:08:14.197Z,0.00
2018-04-05T01:09:14.205Z,0.00
2018-04-05T01:10:14.212Z,0.00
2018-04-05T01:11:14.220Z,0.00
2018-04-05T01:12:14.229Z,0.00
2018-04-05T01:13:14.239Z,0.00
2018-04-05T01:14:14.249Z,0.00
2018-04-05T01:15:14.254Z,0.00
2018-04-05T01:16:14.260Z,0.00
2018-04-05T01:17:14.269Z,0.00
2018-04-05T01:18:14.279Z,0.00
2018-04-05T01:19:14.292Z,0.00
2018-04-05T01:20:14.308Z,0.00
2018-04-05T01:21:14.300Z,0.00
2018-04-05T01:22:14.312Z,0.00
2018-04-05T01:23:14.319Z,0.00
2018-04-05T01:24:14.329Z,0.00
2018-04-05T01:25:14.339Z,0.00
2018-04-05T01:26:14.342Z,0.00
2018-04-05T01:27:14.357Z,0.00
2018-04-05T01:28:14.356Z,0.00
2018-04-05T01:29:14.365Z,0.00
2018-04-05T01:30:14.373Z,0.00
2018-04-05T01:31:14.380Z,0.00
2018-04-05T01:32:14.390Z,0.00
2018-04-05T01:33:14.397Z,0.00
2018-04-05T01:34:14.405Z,0.00
2018-04-05T01:35:14.413Z,0.00
2018-04-05T01:36:14.422Z,0.00
2018-04-05T01:37:14.433Z,0.00
2018-04-05T01:38:14.443Z,0.00
2018-04-05T01:39:14.445Z,0.00
2018-04-05T01:40:14.455Z,0.00
2018-04-05T01:41:14.466Z,0.00
2018-04-05T01:42:14.472Z,0.00
2018-04-05T01:43:14.476Z,0.00
2018-04-05T01:44:14.486Z,0.00
2018-04-05T01:45:14.499Z,0.00
2018-04-05T01:46:14.502Z,0.00
2018-04-05T01:47:14.515Z,0.00
2018-04-05T01:48:14.522Z,0.00
2018-04-05T01:49:14.528Z,0.00
2018-04-05T01:50:14.534Z,0.00
2018-04-05T01:51:14.541Z,0.00
2018-04-05T01:52:14.563Z,0.00
2018-04-05T01:53:14.561Z,0.00
2018-04-05T01:54:14.567Z,0.00
2018-04-05T01:55:14.574Z,0.00
2018-04-05T01:56:14.580Z,0.00
2018-04-05T01:57:14.589Z,0.00
2018-04-05T01:58:14.600Z,0.00
2018-04-05T01:59:14.605Z,0.00
2018-04-05T02:00:14.614Z,0.00
2018-04-05T02:01:14.629Z,0.00
2018-04-05T02:02:14.628Z,0.00
2018-04-05T02:03:14.639Z,0.00
2018-04-05T02:04:14.646Z,0.00
2018-04-05T02:05:14.656Z,0.00
2018-04-05T02:06:14.663Z,0.00
2018-04-05T02:07:15.645Z,0.00
2018-04-05T02:08:14.677Z,0.00
2018-04-05T02:09:14.684Z,0.00
2018-04-05T02:10:14.694Z,0.00
2018-04-05T02:11:14.700Z,0.00
2018-04-05T02:12:14.710Z,0.00
2018-04-05T02:13:14.719Z,0.00
2018-04-05T02:14:14.730Z,0.00
2018-04-05T02:15:14.734Z,0.00
2018-04-05T02:16:14.746Z,0.00
2018-04-05T02:17:14.751Z,0.00
2018-04-05T02:18:14.760Z,0.00
2018-04-05T02:19:14.764Z,0.00
2018-04-05T02:20:14.778Z,0.00
2018-04-05T02:21:14.784Z,0.00
2018-04-05T02:22:14.791Z,0.00
2018-04-05T02:23:14.796Z,0.00
2018-04-05T02:24:14.804Z,0.00
2018-04-05T02:25:14.812Z,0.00
2018-04-05T02:26:14.826Z,0.00
2018-04-05T02:27:14.830Z,0.00
2018-04-05T02:28:14.838Z,0.00
2018-04-05T02:29:14.844Z,0.00
2018-04-05T02:30:14.853Z,0.00
2018-04-05T02:31:14.861Z,0.00
2018-04-05T02:32:14.870Z,0.00
2018-04-05T02:33:14.879Z,0.00
2018-04-05T02:34:14.887Z,0.00
2018-04-05T02:35:14.892Z,0.00
2018-04-05T02:36:14.902Z,0.00
2018-04-05T02:37:14.915Z,0.00
2018-04-05T02:38:14.916Z,0.00
2018-04-05T02:39:14.926Z,0.00
2018-04-05T02:40:14.932Z,0.00
2018-04-05T02:41:14.964Z,0.00
2018-04-05T02:42:14.950Z,0.00
2018-04-05T02:43:14.975Z,0.00
2018-04-05T02:44:14.964Z,0.00
2018-04-05T02:45:14.974Z,0.00
2018-04-05T02:46:14.986Z,0.00
2018-04-05T02:47:14.989Z,0.00
2018-04-05T02:48:15.650Z,0.00
2018-04-05T02:49:15.008Z,0.00
2018-04-05T02:50:15.013Z,0.00
2018-04-05T02:51:15.023Z,0.00
2018-04-05T02:52:15.029Z,0.00
2018-04-05T02:53:15.034Z,0.00
2018-04-05T02:54:15.044Z,0.00
2018-04-05T02:55:15.050Z,0.00
2018-04-05T02:56:15.058Z,0.00
2018-04-05T02:57:15.069Z,0.00
2018-04-05T02:58:15.074Z,0.00
2018-04-05T02:59:15.084Z,0.00
2018-04-05T03:00:15.095Z,0.00
2018-04-05T03:01:15.100Z,0.00
2018-04-05T03:02:15.109Z,0.00
2018-04-05T03:03:15.113Z,0.00
2018-04-05T03:04:15.122Z,0.00
2018-04-05T03:05:15.134Z,0.00
2018-04-05T03:06:15.138Z,0.00
2018-04-05T03:07:15.150Z,0.00
2018-04-05T03:08:15.154Z,0.00
2018-04-05T03:09:15.163Z,0.00
2018-04-05T03:10:15.171Z,0.00
2018-04-05T03:11:15.176Z,0.00
2018-04-05T03:12:15.185Z,0.00
2018-04-05T03:13:15.196Z,0.00
2018-04-05T03:14:15.206Z,0.00
2018-04-05T03:15:15.211Z,0.00
2018-04-05T03:16:15.217Z,0.00
2018-04-05T03:17:15.228Z,0.00
2018-04-05T03:18:15.244Z,0.00
2018-04-05T03:19:15.241Z,0.00
2018-04-05T03:20:15.249Z,0.00
2018-04-05T03:21:15.256Z,0.00
2018-04-05T03:22:15.269Z,0.00
2018-04-05T03:23:15.277Z,0.00
2018-04-05T03:24:15.283Z,0.00
2018-04-05T03:25:15.287Z,0.00
2018-04-05T03:26:15.299Z,0.00
2018-04-05T03:27:15.307Z,0.00
2018-04-05T03:28:15.318Z,0.00
2018-04-05T03:29:15.319Z,0.00
2018-04-05T03:30:15.359Z,0.00
2018-04-05T03:31:15.343Z,0.00
2018-04-05T03:32:15.345Z,0.00
2018-04-05T03:33:15.354Z,0.00
2018-04-05T03:34:15.361Z,0.00
2018-04-05T03:35:15.397Z,0.00
2018-04-05T03:36:15.391Z,0.00
2018-04-05T03:37:15.388Z,0.00
2018-04-05T03:38:15.419Z,0.00
2018-04-05T03:39:15.402Z,0.00
2018-04-05T03:40:15.417Z,0.00
2018-04-05T03:41:15.415Z,0.00
2018-04-05T03:42:15.424Z,0.00
2018-04-05T03:43:15.464Z,0.00
2018-04-05T03:44:15.445Z,0.00
2018-04-05T03:45:15.445Z,0.00
2018-04-05T03:46:15.459Z,0.00
2018-04-05T03:47:15.464Z,0.00
2018-04-05T03:48:15.582Z,0.00
2018-04-05T03:49:15.497Z,0.00
2018-04-05T03:50:15.489Z,0.00
2018-04-05T03:51:15.523Z,0.00
2018-04-05T03:52:15.511Z,0.00
2018-04-05T03:53:15.511Z,0.00
2018-04-05T03:54:15.570Z,0.00
2018-04-05T03:55:15.528Z,0.00
2018-04-05T03:56:15.533Z,0.00
2018-04-05T03:57:15.552Z,0.00
2018-04-05T03:58:15.550Z,0.00
2018-04-05T03:59:15.555Z,0.00
2018-04-05T04:00:15.567Z,0.00
2018-04-05T04:01:15.789Z,0.00
2018-04-05T04:02:15.584Z,0.00
2018-04-05T04:03:15.586Z,0.00
2018-04-05T04:04:15.594Z,0.00
2018-04-05T04:05:15.608Z,0.00
2018-04-05T04:06:15.612Z,0.00
2018-04-05T04:07:15.624Z,0.00
2018-04-05T04:08:15.654Z,0.00
2018-04-05T04:09:15.637Z,0.00
2018-04-05T04:10:15.643Z,0.00
2018-04-05T04:11:15.654Z,0.00
2018-04-05T04:12:15.659Z,0.00
2018-04-05T04:13:15.666Z,0.00
2018-04-05T04:14:15.678Z,0.00
2018-04-05T04:15:15.700Z,0.00
2018-04-05T04:16:15.688Z,0.00
2018-04-05T04:17:15.698Z,0.00
2018-04-05T04:18:15.704Z,0.00
2018-04-05T04:19:15.712Z,0.00
2018-04-05T04:20:15.726Z,0.00
2018-04-05T04:21:15.727Z,0.00
2018-04-05T04:22:15.739Z,0.00
2018-04-05T04:23:15.743Z,0.00
2018-04-05T04:24:15.756Z,0.00
2018-04-05T04:25:15.756Z,0.00
2018-04-05T04:26:15.785Z,0.00
2018-04-05T04:27:15.780Z,0.00
2018-04-05T04:28:15.781Z,0.00
2018-04-05T04:29:15.795Z,0.00
2018-04-05T04:30:15.798Z,0.00
2018-04-05T04:31:15.805Z,0.00
2018-04-05T04:32:15.821Z,0.00
2018-04-05T04:33:15.823Z,0.00
2018-04-05T04:34:15.834Z,0.00
2018-04-05T04:35:15.833Z,0.00
2018-04-05T04:36:15.843Z,0.00
2018-04-05T04:37:15.851Z,0.00
2018-04-05T04:38:15.863Z,0.00
2018-04-05T04:39:15.864Z,0.00
2018-04-05T04:40:15.881Z,0.00
2018-04-05T04:41:15.889Z,0.00
2018-04-05T04:42:16.969Z,0.00
2018-04-05T04:43:15.908Z,0.00
2018-04-05T04:44:15.910Z,0.00
2018-04-05T04:45:15.914Z,0.00
2018-04-05T04:46:15.923Z,0.00
2018-04-05T04:47:15.929Z,0.00
2018-04-05T04:48:15.936Z,5.63
2018-04-05T04:49:15.944Z,5.63
2018-04-05T04:50:15.960Z,5.63
2018-04-05T04:51:15.961Z,5.63
2018-04-05T04:52:15.964Z,5.63
2018-04-05T04:53:15.981Z,5.63
2018-04-05T04:54:15.981Z,5.63
2018-04-05T04:55:15.988Z,11.25
2018-04-05T04:56:16.000Z,11.25
2018-04-05T04:57:16.009Z,11.25
2018-04-05T04:58:16.016Z,11.25
2018-04-05T04:59:16.021Z,11.25
2018-04-05T05:00:16.025Z,11.25
2018-04-05T05:01:16.032Z,16.88
2018-04-05T05:02:16.043Z,16.88
2018-04-05T05:03:16.053Z,16.88
2018-04-05T05:04:16.065Z,16.88
2018-04-05T05:05:16.064Z,16.88
2018-04-05T05:06:16.077Z,22.50
2018-04-05T05:07:16.080Z,22.50
2018-04-05T05:08:16.090Z,22.50
2018-04-05T05:09:16.095Z,22.50
2018-04-05T05:10:16.118Z,22.50
2018-04-05T05:11:16.110Z,28.13
2018-04-05T05:12:16.120Z,28.13
2018-04-05T05:13:16.126Z,28.13
2018-04-05T05:14:16.134Z,28.13
2018-04-05T05:15:16.142Z,28.13
2018-04-05T05:16:16.162Z,28.13
2018-04-05T05:17:16.157Z,33.75
2018-04-05T05:18:16.167Z,33.75
2018-04-05T05:19:16.172Z,33.75
2018-04-05T05:20:16.181Z,33.75
2018-04-05T05:21:16.201Z,33.75
2018-04-05T05:22:16.210Z,39.38
2018-04-05T05:23:16.247Z,39.38
2018-04-05T05:24:16.228Z,39.38
2018-04-05T05:25:16.223Z,39.38
2018-04-05T05:26:16.225Z,45.00
2018-04-05T05:27:16.233Z,45.00
2018-04-05T05:28:16.246Z,45.00
2018-04-05T05:29:16.252Z,50.63
2018-04-05T05:30:16.263Z,50.63
2018-04-05T05:31:16.265Z,50.63
2018-04-05T05:32:16.270Z,50.63
2018-04-05T05:33:16.281Z,50.63
2018-04-05T05:34:16.294Z,50.63
2018-04-05T05:35:16.294Z,56.25
2018-04-05T05:36:16.304Z,50.63
2018-04-05T05:37:16.310Z,50.63
2018-04-05T05:38:16.324Z,50.63
2018-04-05T05:39:16.323Z,50.63
2018-04-05T05:40:16.346Z,50.63
2018-04-05T05:41:16.352Z,50.63
2018-04-05T05:42:16.349Z,56.25
2018-04-05T05:43:16.368Z,56.25
2018-04-05T05:44:16.365Z,56.25
2018-04-05T05:46:48.798Z,56.25
2018-04-05T05:47:49.016Z,56.25
2018-04-05T05:48:48.865Z,61.88
2018-04-05T05:49:48.885Z,61.88
2018-04-05T05:50:48.824Z,61.88
2018-04-05T05:51:48.847Z,73.13
2018-04-05T05:52:48.702Z,73.13
2018-04-05T05:53:48.756Z,73.13
2018-04-05T05:54:48.796Z,73.13
2018-04-05T05:55:48.778Z,73.13
2018-04-05T05:56:49.061Z,73.13
2018-04-05T05:57:48.744Z,78.75
2018-04-05T05:58:48.903Z,78.75
2018-04-05T05:59:48.802Z,78.75
2018-04-05T06:00:48.815Z,78.75
2018-04-05T06:01:48.865Z,78.75
2018-04-05T06:02:48.824Z,78.75
2018-04-05T06:03:48.828Z,78.75
2018-04-05T06:04:48.909Z,78.75
2018-04-05T06:05:48.901Z,84.38
2018-04-05T06:06:48.821Z,84.38
2018-04-05T06:07:48.862Z,84.38
2018-04-05T06:08:49.030Z,84.38
2018-04-05T06:09:49.120Z,84.38
2018-04-05T06:10:48.961Z,84.38
2018-04-05T06:11:48.899Z,84.38
2018-04-05T06:12:48.841Z,78.75
2018-04-05T06:13:48.907Z,90.00
2018-04-05T06:14:49.167Z,90.00
2018-04-05T06:15:48.870Z,95.63
2018-04-05T06:16:49.154Z,95.63
2018-04-05T06:17:49.170Z,101.25
2018-04-05T06:18:49.066Z,112.50
2018-04-05T06:19:49.091Z,118.13
2018-04-05T06:20:49.145Z,123.75
2018-04-05T06:21:49.010Z,140.63
2018-04-05T06:22:49.009Z,135.00
2018-04-05T06:23:48.993Z,135.00
2018-04-05T06:24:49.005Z,129.38
2018-04-05T06:25:49.249Z,135.00
2018-04-05T06:26:49.058Z,140.63
2018-04-05T06:27:49.216Z,151.88
2018-04-05T06:28:49.519Z,163.13
2018-04-05T06:29:49.151Z,146.25
2018-04-05T06:30:49.138Z,146.25
2018-04-05T06:31:48.970Z,146.25
2018-04-05T06:32:49.070Z,151.88
2018-04-05T06:33:49.094Z,151.88
2018-04-05T06:34:49.113Z,151.88
2018-04-05T06:35:49.122Z,163.13
2018-04-05T06:36:49.094Z,146.25
2018-04-05T06:37:49.104Z,135.00
2018-04-05T06:38:49.112Z,129.38
2018-04-05T06:39:49.140Z,123.75
2018-04-05T06:40:49.161Z,135.00
2018-04-05T06:41:49.183Z,157.50
2018-04-05T06:42:49.212Z,174.38
2018-04-05T06:43:49.225Z,180.00
2018-04-05T06:44:49.172Z,180.00
2018-04-05T06:45:49.294Z,174.38
2018-04-05T06:46:49.179Z,168.75
2018-04-05T06:47:49.396Z,185.63
2018-04-05T06:48:49.332Z,174.38
2018-04-05T06:49:49.619Z,163.13
2018-04-05T06:50:49.530Z,185.63
2018-04-05T06:51:49.367Z,180.00
2018-04-05T06:52:49.234Z,185.63
2018-04-05T06:53:49.246Z,146.25
2018-04-05T06:54:49.247Z,146.25
2018-04-05T06:55:49.257Z,185.63
2018-04-05T06:56:49.270Z,185.63
2018-04-05T06:57:49.271Z,180.00
2018-04-05T06:58:49.278Z,168.75
2018-04-05T06:59:49.430Z,163.13
2018-04-05T07:00:49.296Z,185.63
2018-04-05T07:01:49.317Z,208.13
2018-04-05T07:02:49.337Z,219.38
2018-04-05T07:03:49.323Z,213.75
2018-04-05T07:04:49.331Z,230.63
2018-04-05T07:05:49.343Z,219.38
2018-04-05T07:06:49.353Z,225.00
2018-04-05T07:07:49.358Z,236.25
2018-04-05T07:08:49.367Z,225.00
2018-04-05T07:09:49.375Z,208.13
2018-04-05T07:10:49.394Z,213.75
2018-04-05T07:11:49.453Z,180.00
2018-04-05T07:12:49.412Z,151.88
2018-04-05T07:13:49.411Z,140.63
2018-04-05T07:14:49.420Z,129.38
2018-04-05T07:15:49.435Z,123.75
2018-04-05T07:16:49.539Z,129.38
2018-04-05T07:17:49.448Z,135.00
2018-04-05T07:18:49.465Z,146.25
2018-04-05T07:19:49.474Z,157.50
2018-04-05T07:20:49.513Z,180.00
2018-04-05T07:21:49.487Z,163.13
2018-04-05T07:22:49.514Z,157.50
2018-04-05T07:23:49.499Z,146.25
2018-04-05T07:24:49.509Z,123.75
2018-04-05T07:25:49.520Z,135.00
2018-04-05T07:26:49.530Z,129.38
2018-04-05T07:27:49.552Z,129.38
2018-04-05T07:28:49.577Z,146.25
2018-04-05T07:29:49.553Z,168.75
2018-04-05T07:30:49.593Z,213.75
2018-04-05T07:31:49.573Z,253.13
2018-04-05T07:32:49.579Z,247.50
2018-04-05T07:33:49.589Z,236.25
2018-04-05T07:34:49.597Z,236.25
2018-04-05T07:35:49.738Z,241.88
2018-04-05T07:36:49.616Z,258.75
2018-04-05T07:37:49.684Z,275.63
2018-04-05T07:38:49.632Z,275.63
2018-04-05T07:39:49.665Z,286.88
2018-04-05T07:40:49.652Z,303.75
2018-04-05T07:41:49.659Z,309.38
2018-04-05T07:42:49.758Z,326.25
2018-04-05T07:43:49.792Z,331.88
2018-04-05T07:44:49.688Z,360.00
2018-04-05T07:45:49.666Z,376.88
2018-04-05T07:46:49.765Z,371.25
2018-04-05T07:47:49.809Z,360.00
2018-04-05T07:48:49.755Z,360.00
2018-04-05T07:49:49.776Z,326.25
2018-04-05T07:50:49.686Z,337.50
2018-04-05T07:51:49.758Z,354.38
2018-04-05T07:52:49.665Z,360.00
2018-04-05T07:53:49.898Z,309.38
2018-04-05T07:54:49.812Z,320.63
2018-04-05T07:55:49.812Z,309.38
2018-04-05T07:56:49.899Z,320.63
2018-04-05T07:57:49.715Z,348.75
2018-04-05T07:58:49.862Z,320.63
2018-04-05T07:59:49.889Z,208.13
2018-04-05T08:00:50.009Z,241.88
2018-04-05T08:01:49.854Z,281.25
2018-04-05T08:02:49.859Z,292.50
2018-04-05T08:03:49.869Z,275.63
2018-04-05T08:04:49.887Z,281.25
2018-04-05T08:05:49.958Z,281.25
2018-04-05T08:06:49.903Z,281.25
2018-04-05T08:07:49.906Z,309.38
2018-04-05T08:08:49.919Z,326.25
2018-04-05T08:09:49.946Z,320.63
2018-04-05T08:10:49.937Z,337.50
2018-04-05T08:11:50.009Z,343.13
2018-04-05T08:12:50.054Z,365.63
2018-04-05T08:13:49.968Z,348.75
2018-04-05T08:14:49.981Z,343.13
2018-04-05T08:15:49.987Z,348.75
2018-04-05T08:16:50.000Z,337.50
2018-04-05T08:17:50.019Z,348.75
2018-04-05T08:18:50.015Z,343.13
2018-04-05T08:19:50.028Z,343.13
2018-04-05T08:20:50.037Z,326.25
2018-04-05T08:21:50.060Z,315.00
2018-04-05T08:22:50.056Z,326.25
2018-04-05T08:23:50.072Z,331.88
2018-04-05T08:24:50.089Z,331.88
2018-04-05T08:25:50.136Z,343.13
2018-04-05T08:26:50.096Z,354.38
2018-04-05T08:27:50.139Z,371.25
2018-04-05T08:28:50.145Z,365.63
2018-04-05T08:29:50.131Z,343.13
2018-04-05T08:30:50.136Z,371.25
2018-04-05T08:31:50.143Z,376.88
2018-04-05T08:32:50.154Z,376.88
2018-04-05T08:33:50.164Z,410.63
2018-04-05T08:34:50.175Z,427.50
2018-04-05T08:35:50.187Z,427.50
2018-04-05T08:36:50.204Z,405.00
2018-04-05T08:37:50.203Z,410.63
2018-04-05T08:38:50.221Z,421.88
2018-04-05T08:39:50.257Z,399.38
2018-04-05T08:40:50.235Z,360.00
2018-04-05T08:41:50.581Z,309.38
2018-04-05T08:42:50.306Z,298.13
2018-04-05T08:43:50.266Z,303.75
2018-04-05T08:44:50.275Z,315.00
2018-04-05T08:45:50.285Z,298.13
2018-04-05T08:46:50.298Z,258.75
2018-04-05T08:47:50.306Z,230.63
2018-04-05T08:48:50.379Z,230.63
2018-04-05T08:49:50.343Z,241.88
2018-04-05T08:50:50.337Z,292.50
2018-04-05T08:51:50.363Z,371.25
2018-04-05T08:52:50.368Z,444.38
2018-04-05T08:53:50.370Z,421.88
2018-04-05T08:54:50.375Z,421.88
2018-04-05T08:55:50.460Z,433.13
2018-04-05T08:56:50.300Z,438.75
2018-04-05T08:57:50.465Z,466.88
2018-04-05T08:58:50.419Z,461.25
2018-04-05T08:59:50.428Z,416.25
2018-04-05T09:00:50.439Z,371.25
2018-04-05T09:01:50.447Z,360.00
2018-04-05T09:02:50.458Z,337.50
2018-04-05T09:03:50.468Z,337.50
2018-04-05T09:04:50.479Z,320.63
2018-04-05T09:05:50.488Z,326.25
2018-04-05T09:06:50.508Z,348.75
2018-04-05T09:07:50.508Z,264.38
2018-04-05T09:08:50.515Z,348.75
2018-04-05T09:09:50.529Z,438.75
2018-04-05T09:10:50.538Z,343.13
2018-04-05T09:11:50.553Z,371.25
2018-04-05T09:12:50.558Z,331.88
2018-04-05T09:13:50.595Z,348.75
2018-04-05T09:14:50.590Z,241.88
2018-04-05T09:15:50.590Z,196.88
2018-04-05T09:16:50.602Z,253.13
2018-04-05T09:17:50.622Z,230.63
2018-04-05T09:18:50.619Z,247.50
2018-04-05T09:19:50.629Z,315.00
2018-04-05T09:20:50.644Z,360.00
2018-04-05T09:21:50.651Z,309.38
2018-04-05T09:22:50.663Z,286.88
2018-04-05T09:23:50.671Z,337.50
2018-04-05T09:24:50.684Z,354.38
2018-04-05T09:25:50.698Z,410.63
2018-04-05T09:26:50.704Z,416.25
2018-04-05T09:27:50.728Z,388.13
2018-04-05T09:28:50.723Z,416.25
2018-04-05T09:29:50.734Z,461.25
2018-04-05T09:30:50.749Z,427.50
2018-04-05T09:31:50.752Z,315.00
2018-04-05T09:32:50.759Z,298.13
2018-04-05T09:33:50.821Z,326.25
2018-04-05T09:34:50.783Z,337.50
2018-04-05T09:35:50.795Z,382.50
2018-04-05T09:36:50.806Z,534.38
2018-04-05T09:37:50.811Z,500.63
2018-04-05T09:38:50.823Z,489.38
2018-04-05T09:39:50.836Z,506.25
2018-04-05T09:40:50.875Z,416.25
2018-04-05T09:41:50.856Z,500.63
2018-04-05T09:42:50.874Z,534.38
2018-04-05T09:43:50.877Z,478.13
2018-04-05T09:44:50.888Z,478.13
2018-04-05T09:45:50.894Z,511.88
2018-04-05T09:46:51.029Z,545.63
2018-04-05T09:47:50.978Z,506.25
2018-04-05T09:48:51.557Z,326.25
2018-04-05T09:49:50.945Z,421.88
2018-04-05T09:50:50.857Z,438.75
2018-04-05T09:51:50.962Z,337.50
2018-04-05T09:52:51.016Z,365.63
2018-04-05T09:53:50.988Z,433.13
2018-04-05T09:54:51.022Z,376.88
2018-04-05T09:55:51.010Z,472.50
2018-04-05T09:56:51.015Z,478.13
2018-04-05T09:57:51.025Z,450.00
2018-04-05T09:58:51.039Z,393.75
2018-04-05T09:59:51.045Z,495.00
2018-04-05T10:00:51.061Z,517.50
2018-04-05T10:01:51.073Z,421.88
2018-04-05T10:02:51.081Z,517.50
2018-04-05T10:03:51.088Z,551.25
2018-04-05T10:04:51.098Z,495.00
2018-04-05T10:05:51.110Z,427.50
2018-04-05T10:06:51.174Z,478.13
2018-04-05T10:07:51.134Z,579.38
2018-04-05T10:08:51.142Z,590.63
2018-04-05T10:09:51.153Z,472.50
2018-04-05T10:10:51.164Z,438.75
2018-04-05T10:11:51.178Z,500.63
2018-04-05T10:12:51.188Z,511.88
2018-04-05T10:13:51.230Z,376.88
2018-04-05T10:14:51.212Z,360.00
2018-04-05T10:15:51.221Z,326.25
2018-04-05T10:16:51.228Z,410.63
2018-04-05T10:17:51.246Z,573.75
2018-04-05T10:18:51.253Z,607.50
2018-04-05T10:19:51.312Z,556.88
2018-04-05T10:20:51.308Z,438.75
2018-04-05T10:21:51.282Z,478.13
2018-04-05T10:22:51.351Z,551.25
2018-04-05T10:23:51.307Z,562.50
2018-04-05T10:24:51.314Z,483.75
2018-04-05T10:25:51.329Z,489.38
2018-04-05T10:26:51.344Z,540.00
2018-04-05T10:27:51.386Z,596.25
2018-04-05T10:28:51.360Z,613.13
2018-04-05T10:29:51.370Z,585.00
2018-04-05T10:30:51.396Z,483.75
2018-04-05T10:31:51.393Z,540.00
2018-04-05T10:32:51.432Z,579.38
2018-04-05T10:33:51.426Z,680.63
2018-04-05T10:34:51.428Z,624.38
2018-04-05T10:35:51.443Z,798.75
2018-04-05T10:36:51.451Z,669.38
2018-04-05T10:37:51.466Z,506.25
2018-04-05T10:38:51.524Z,562.50
2018-04-05T10:39:51.490Z,517.50
2018-04-05T10:40:52.117Z,433.13
2018-04-05T10:41:51.510Z,365.63
2018-04-05T10:42:51.522Z,399.38
2018-04-05T10:43:51.534Z,438.75
2018-04-05T10:44:51.581Z,421.88
2018-04-05T10:45:51.551Z,455.63
2018-04-05T10:46:51.566Z,500.63
2018-04-05T10:47:51.579Z,658.13
2018-04-05T10:48:51.587Z,646.88
2018-04-05T10:49:51.602Z,568.13
2018-04-05T10:50:51.611Z,466.88
2018-04-05T10:51:51.626Z,1890.00
2018-04-05T10:52:51.635Z,421.88
2018-04-05T10:53:51.644Z,3498.75
2018-04-05T10:54:51.658Z,3206.25
2018-04-05T10:55:51.669Z,3026.25
2018-04-05T10:56:51.759Z,3318.75
2018-04-05T10:57:51.717Z,3487.50
2018-04-05T10:58:51.719Z,3397.50
2018-04-05T10:59:51.721Z,3504.38
2018-04-05T11:00:51.730Z,3751.88
2018-04-05T11:01:51.778Z,3667.50
2018-04-05T11:02:51.765Z,3583.13
2018-04-05T11:03:51.996Z,3886.88
2018-04-05T11:04:51.963Z,2458.13
2018-04-05T11:05:51.810Z,888.75
2018-04-05T11:06:51.871Z,4151.25
2018-04-05T11:07:51.841Z,3976.88
2018-04-05T11:08:51.865Z,3735.00
2018-04-05T11:09:51.880Z,3566.25
2018-04-05T11:10:51.904Z,3639.38
2018-04-05T11:11:51.906Z,3420.00
2018-04-05T11:12:51.983Z,3594.38
2018-04-05T11:13:51.943Z,2311.88
2018-04-05T11:14:51.959Z,2688.75
2018-04-05T11:15:51.999Z,1434.38
2018-04-05T11:16:51.996Z,855.00
2018-04-05T11:17:52.043Z,736.88
2018-04-05T11:18:52.038Z,388.13
2018-04-05T11:19:52.053Z,298.13
2018-04-05T11:20:52.161Z,286.88
2018-04-05T11:21:52.105Z,348.75
2018-04-05T11:22:52.131Z,303.75
2018-04-05T11:23:52.126Z,399.38
2018-04-05T11:24:52.147Z,461.25
2018-04-05T11:25:52.163Z,393.75
2018-04-05T11:26:52.174Z,371.25
2018-04-05T11:27:52.311Z,337.50
2018-04-05T11:28:52.206Z,376.88
2018-04-05T11:29:52.456Z,315.00
2018-04-05T11:30:52.287Z,371.25
2018-04-05T11:31:52.250Z,2295.00
2018-04-05T11:32:52.271Z,2205.00
2018-04-05T11:33:52.280Z,2205.00
2018-04-05T11:34:52.300Z,2250.00
2018-04-05T11:35:52.315Z,2266.88
2018-04-05T11:36:52.331Z,2300.63
2018-04-05T11:37:52.346Z,2328.75
2018-04-05T11:38:52.358Z,2401.88
2018-04-05T11:39:52.374Z,2424.38
2018-04-05T11:40:52.394Z,2452.50
2018-04-05T11:41:52.407Z,2508.75
2018-04-05T11:42:52.424Z,2576.25
2018-04-05T11:43:52.467Z,2649.38
2018-04-05T11:44:52.488Z,2581.88
2018-04-05T11:45:59.588Z,995.63
2018-04-05T11:47:56.436Z,708.75
2018-04-05T11:48:56.425Z,787.50
2018-04-05T11:51:00.477Z,821.25
2018-04-05T11:52:00.484Z,703.13
2018-04-05T11:53:00.496Z,585.00
2018-04-05T11:54:00.529Z,483.75
2018-04-05T11:55:00.548Z,388.13
2018-04-05T11:56:00.612Z,388.13
2018-04-05T11:57:00.554Z,489.38
2018-04-05T11:58:00.584Z,720.00
2018-04-05T11:59:00.589Z,866.25
2018-04-05T12:00:00.614Z,843.75
2018-04-05T12:01:00.623Z,601.88
2018-04-05T12:02:00.635Z,523.13
2018-04-05T12:03:00.659Z,658.13
2018-04-05T12:04:00.669Z,2385.00
2018-04-05T12:05:00.682Z,585.00
2018-04-05T12:06:00.704Z,405.00
2018-04-05T12:07:00.714Z,348.75
2018-04-05T12:08:00.753Z,405.00
2018-04-05T12:09:00.745Z,483.75
2018-04-05T12:10:00.758Z,540.00
2018-04-05T12:11:00.773Z,680.63
2018-04-05T12:12:00.789Z,703.13
2018-04-05T12:13:00.826Z,950.63
2018-04-05T12:14:00.823Z,3138.75
2018-04-05T12:15:00.830Z,1192.50
2018-04-05T12:16:00.848Z,3020.63
2018-04-05T12:17:00.861Z,3166.88
2018-04-05T12:18:00.875Z,736.88
2018-04-05T12:19:00.891Z,911.25
2018-04-05T12:20:00.915Z,843.75
2018-04-05T12:21:00.922Z,708.75
2018-04-05T12:22:00.938Z,3009.38
2018-04-05T12:23:00.952Z,2041.88
2018-04-05T12:24:00.977Z,725.63
2018-04-05T12:25:00.988Z,3414.38
2018-04-05T12:26:01.010Z,1063.13
2018-04-05T12:27:01.021Z,3217.50
2018-04-05T12:28:01.037Z,1726.88
2018-04-05T12:29:01.053Z,2694.38
2018-04-05T12:30:01.070Z,3301.88
2018-04-05T12:31:01.091Z,3279.38
2018-04-05T12:32:01.122Z,3363.75
2018-04-05T12:33:01.128Z,810.00
2018-04-05T12:34:01.153Z,2958.75
2018-04-05T12:35:01.160Z,2936.25
2018-04-05T12:36:01.183Z,2846.25
2018-04-05T12:37:01.209Z,2851.88
2018-04-05T12:38:01.229Z,2936.25
2018-04-05T12:39:01.239Z,2981.25
2018-04-05T12:40:01.257Z,2148.75
2018-04-05T12:41:01.279Z,3082.50
2018-04-05T12:42:01.300Z,2986.88
2018-04-05T12:43:01.323Z,3009.38
2018-04-05T12:44:01.346Z,3110.63
2018-04-05T12:45:01.379Z,3003.75
2018-04-05T12:46:01.390Z,697.50
2018-04-05T12:47:01.412Z,455.63
2018-04-05T12:48:01.477Z,455.63
2018-04-05T12:49:01.451Z,438.75
2018-04-05T12:50:01.475Z,1001.25
2018-04-05T12:51:01.496Z,2289.38